Obninsk, Russia
Current Conditions -  °F | °C
As of 1:00 PM on Sunday 25 Jan 2015 (Local Time) from UUWW Reporting Station
Clear Clear  
Wind Chill:   Ceiling: Unl
Heat Index: 19°   Visibility: 6mi
Dew Point: 10°   Wind: 9mph
Humidity: 68%   Direction: 120°ESE
Pressure: 30.42"   Gusts: NA
Location:  55.1°N, 36.61°E
Report Text: UUWW 251000Z 12004MPS CAVOK M07/M12 Q1030 06410250 NOSIG
Loading
Personal Weather Stations






























Interactive Weather Map New forecast layout! Learn more

10-Day Weather Forecast

Advertisements
Track Severe Weather on mobile